Time;durP1;ratioP1;P1;durP2;ratioP2;P2;SDS_P1;SDS_P2;PMS_P1;PMS_P2;Temp;Humidity;BMP_temperature;BMP_pressure;BME280_temperature;BME280_humidity;BME280_pressure;Samples;Min_cycle;Max_cycle;Signal;HPM_P1;HPM_P2
2021/12/30 00:01:11;;;;;;;0.20;0.20;;;;;;;10.81;100.00;98575.47;4938481;29;20469;-71
2021/12/30 00:03:38;;;;;;;0.30;0.30;;;;;;;10.71;100.00;98584.31;4938761;29;20496;-71
2021/12/30 00:06:04;;;;;;;0.40;0.40;;;;;;;10.62;100.00;98590.56;4942587;29;20470;-71
2021/12/30 00:08:29;;;;;;;0.50;0.50;;;;;;;10.71;100.00;98594.69;4940643;28;20024;-71
2021/12/30 00:10:55;;;;;;;0.30;0.30;;;;;;;10.63;100.00;98601.75;4938545;29;20039;-71
2021/12/30 00:13:21;;;;;;;0.57;0.30;;;;;;;10.61;100.00;98603.56;4938565;29;20489;-71
2021/12/30 00:15:47;;;;;;;0.30;0.30;;;;;;;10.59;100.00;98610.47;4938453;29;20030;-71
2021/12/30 00:18:12;;;;;;;0.32;0.32;;;;;;;10.57;100.00;98609.69;4938334;29;20035;-71
2021/12/30 00:20:39;;;;;;;0.30;0.30;;;;;;;10.59;100.00;98618.25;4938247;29;20059;-71
2021/12/30 00:23:07;;;;;;;0.20;0.20;;;;;;;10.61;100.00;98619.09;4938197;29;20055;-71
2021/12/30 00:25:40;;;;;;;0.55;0.40;;;;;;;10.59;100.00;98631.22;4938537;29;20055;-71
2021/12/30 00:28:08;;;;;;;0.40;0.40;;;;;;;10.61;100.00;98634.63;4938330;29;20035;-71
2021/12/30 00:30:34;;;;;;;0.40;0.40;;;;;;;10.64;100.00;98644.94;4938052;29;20485;-71
2021/12/30 00:33:00;;;;;;;0.70;0.70;;;;;;;10.69;100.00;98648.31;4938092;29;20185;-71
2021/12/30 00:35:25;;;;;;;0.50;0.50;;;;;;;10.69;100.00;98653.47;4938061;29;20061;-71
2021/12/30 00:37:50;;;;;;;0.30;0.30;;;;;;;10.71;100.00;98656.88;4938153;29;20469;-71
2021/12/30 00:40:16;;;;;;;0.47;0.47;;;;;;;10.78;100.00;98661.03;4937955;29;20059;-71
2021/12/30 00:42:41;;;;;;;0.20;0.20;;;;;;;10.99;100.00;98673.56;4937962;29;20370;-71
2021/12/30 00:45:07;;;;;;;0.30;0.30;;;;;;;11.02;100.00;98673.50;4937949;29;20497;-71
2021/12/30 00:47:32;;;;;;;0.30;0.30;;;;;;;10.98;100.00;98671.88;4937812;29;20028;-71
2021/12/30 00:49:57;;;;;;;0.40;0.40;;;;;;;11.04;100.00;98676.91;4937732;29;20043;-71
2021/12/30 00:52:24;;;;;;;0.20;0.20;;;;;;;11.19;100.00;98677.47;4937898;29;20469;-71
2021/12/30 00:54:49;;;;;;;2.47;0.47;;;;;;;11.29;100.00;98668.59;4937883;29;20389;-71
2021/12/30 00:57:15;;;;;;;0.30;0.30;;;;;;;11.30;100.00;98667.69;4937841;29;20039;-71
2021/12/30 00:59:41;;;;;;;0.30;0.30;;;;;;;11.33;100.00;98667.63;4937533;29;20078;-71
2021/12/30 05:15:33;;;;;;;0.40;0.40;;;;;;;10.73;100.00;98968.66;5860335;23;20873;-69
2021/12/30 05:17:59;;;;;;;0.50;0.50;;;;;;;10.77;100.00;98972.94;4937169;29;20599;-69
2021/12/30 05:20:25;;;;;;;0.30;0.30;;;;;;;10.76;100.00;98971.22;4937593;29;20068;-69
2021/12/30 05:22:51;;;;;;;0.50;0.50;;;;;;;10.80;100.00;98972.91;4937370;29;20039;-70
2021/12/30 05:25:18;;;;;;;0.30;0.30;;;;;;;10.79;100.00;98976.38;4937266;29;20059;-69
2021/12/30 05:27:44;;;;;;;0.40;0.40;;;;;;;10.77;100.00;98978.97;4937150;29;20111;-69
2021/12/30 05:30:12;;;;;;;0.40;0.40;;;;;;;10.79;100.00;98984.16;4937640;29;20118;-71
2021/12/30 05:32:37;;;;;;;0.32;0.32;;;;;;;10.82;100.00;98981.50;4937179;29;20031;-71
2021/12/30 05:35:05;;;;;;;0.40;0.40;;;;;;;10.71;100.00;98991.19;4937014;29;20400;-71
2021/12/30 05:37:31;;;;;;;0.65;0.65;;;;;;;10.69;100.00;98990.34;4943298;29;20501;-71
2021/12/30 05:39:57;;;;;;;0.55;0.55;;;;;;;10.71;100.00;98993.75;4937058;29;20209;-71
2021/12/30 05:42:23;;;;;;;0.50;0.50;;;;;;;10.81;100.00;98995.34;4936925;29;20039;-71
2021/12/30 05:44:55;;;;;;;0.32;0.32;;;;;;;10.74;100.00;98993.72;4936819;28;20043;-71
2021/12/30 05:47:21;;;;;;;0.35;0.35;;;;;;;10.68;100.00;99001.56;4936580;29;20110;-71
2021/12/30 05:49:46;;;;;;;0.50;0.50;;;;;;;10.62;100.00;99005.13;4936823;29;20059;-71
2021/12/30 05:52:12;;;;;;;0.50;0.50;;;;;;;10.64;100.00;99002.53;4936834;29;20027;-71
2021/12/30 05:54:38;;;;;;;0.50;0.50;;;;;;;10.59;100.00;98999.13;4936710;29;20020;-71
2021/12/30 05:57:04;;;;;;;0.50;0.50;;;;;;;10.59;100.00;99000.00;4935593;29;20035;-71
2021/12/30 05:59:29;;;;;;;0.40;0.40;;;;;;;10.61;100.00;99005.16;4936655;29;20024;-71
2021/12/30 06:01:54;;;;;;;0.30;0.30;;;;;;;10.58;100.00;99012.94;4936421;29;20119;-71
2021/12/30 06:04:20;;;;;;;0.82;0.82;;;;;;;10.63;100.00;99017.19;4936579;29;20031;-71
2021/12/30 06:06:45;;;;;;;0.45;0.45;;;;;;;10.66;100.00;99017.16;4943058;29;20023;-71
2021/12/30 06:09:11;;;;;;;0.40;0.40;;;;;;;10.65;100.00;99019.78;4936627;29;20446;-71
2021/12/30 06:11:36;;;;;;;0.38;0.38;;;;;;;10.73;100.00;99013.63;4936427;29;20034;-71
2021/12/30 06:14:02;;;;;;;0.22;0.22;;;;;;;10.66;100.00;99018.91;4936455;29;20312;-71
2021/12/30 06:16:27;;;;;;;0.40;0.40;;;;;;;10.68;100.00;99011.94;4934996;29;20020;-71
2021/12/30 06:18:52;;;;;;;0.60;0.60;;;;;;;10.66;100.00;99021.47;4936409;29;20496;-71
2021/12/30 06:21:18;;;;;;;0.40;0.40;;;;;;;10.65;100.00;99027.56;4934828;29;20515;-70
2021/12/30 06:23:43;;;;;;;3.25;0.82;;;;;;;10.49;100.00;99020.00;4936220;29;20063;-71
2021/12/30 06:26:08;;;;;;;0.40;0.40;;;;;;;10.58;100.00;99029.34;4935846;29;20119;-71
2021/12/30 06:28:34;;;;;;;0.50;0.50;;;;;;;10.58;100.00;99033.69;4936175;29;20049;-71
2021/12/30 06:30:59;;;;;;;0.40;0.40;;;;;;;10.71;100.00;99040.41;4935971;29;20023;-71
2021/12/30 06:33:24;;;;;;;0.30;0.30;;;;;;;10.61;100.00;99031.06;4936117;29;20063;-71
2021/12/30 06:35:50;;;;;;;0.40;0.40;;;;;;;10.57;100.00;99038.00;4938226;29;20023;-71
2021/12/30 06:38:15;;;;;;;0.40;0.40;;;;;;;10.65;100.00;99035.31;4939889;28;20035;-71
2021/12/30 06:40:40;;;;;;;0.30;0.30;;;;;;;10.65;100.00;99035.31;4935700;29;20027;-71
2021/12/30 06:43:06;;;;;;;0.50;0.50;;;;;;;10.65;100.00;99033.59;4935824;29;20032;-71
2021/12/30 06:45:31;;;;;;;0.30;0.30;;;;;;;10.64;100.00;99039.66;4935677;29;20489;-71
2021/12/30 06:47:57;;;;;;;0.35;0.35;;;;;;;10.65;100.00;99050.88;4935349;29;20062;-71
2021/12/30 06:50:24;;;;;;;0.98;0.95;;;;;;;10.65;100.00;99046.53;4935676;29;20016;-71
2021/12/30 06:52:50;;;;;;;0.60;0.60;;;;;;;10.67;100.00;99054.28;4935768;29;20027;-71
2021/12/30 06:55:16;;;;;;;0.60;0.60;;;;;;;10.77;100.00;99055.88;4935562;29;20111;-71
2021/12/30 06:57:42;;;;;;;1.55;0.80;;;;;;;10.78;100.00;99054.97;4935373;29;20467;-71
2021/12/30 07:00:10;;;;;;;0.82;0.82;;;;;;;10.75;100.00;99057.63;4935360;29;20483;-71
2021/12/30 07:02:35;;;;;;;0.40;0.40;;;;;;;10.71;100.00;99067.19;4935480;29;20106;-71
2021/12/30 07:05:02;;;;;;;0.50;0.50;;;;;;;10.71;100.00;99063.75;4935534;29;20030;-71
2021/12/30 07:07:28;;;;;;;0.38;0.38;;;;;;;10.80;100.00;99071.38;4942006;29;20300;-71
2021/12/30 07:09:53;;;;;;;0.32;0.32;;;;;;;10.85;100.00;99069.59;4935252;29;20401;-71
2021/12/30 07:12:18;;;;;;;0.43;0.43;;;;;;;10.77;100.00;99076.59;4935405;29;20039;-71
2021/12/30 07:14:44;;;;;;;0.55;0.55;;;;;;;10.80;100.00;99082.59;4935270;29;20055;-71
2021/12/30 07:17:09;;;;;;;0.43;0.43;;;;;;;10.78;100.00;99084.38;4934862;29;20479;-71
2021/12/30 07:19:35;;;;;;;1.05;0.98;;;;;;;10.85;100.00;99074.75;4935321;29;20438;-71
2021/12/30 07:22:00;;;;;;;1.13;1.10;;;;;;;10.86;100.00;99081.66;4935182;29;20020;-71
2021/12/30 07:24:25;;;;;;;1.20;1.13;;;;;;;10.89;100.00;99076.44;4834077;28;20451;-71
2021/12/30 07:26:51;;;;;;;0.45;0.45;;;;;;;10.88;100.00;99085.09;4961967;28;20105;-71
2021/12/30 07:29:17;;;;;;;0.57;0.57;;;;;;;10.85;100.00;99085.13;4954135;28;20146;-71
2021/12/30 07:31:43;;;;;;;0.50;0.50;;;;;;;10.86;100.00;99086.84;4954314;28;20106;-71
2021/12/30 07:34:08;;;;;;;0.55;0.55;;;;;;;10.86;100.00;99092.03;4954169;28;20455;-71
2021/12/30 07:36:34;;;;;;;1.55;1.17;;;;;;;10.88;100.00;99099.78;4953903;28;20027;-71
2021/12/30 07:38:59;;;;;;;6.57;2.40;;;;;;;10.88;100.00;99104.97;4949140;28;20035;-71
2021/12/30 07:41:25;;;;;;;1.55;1.27;;;;;;;10.92;100.00;99104.91;4935005;29;20031;-71
2021/12/30 07:43:51;;;;;;;2.28;1.40;;;;;;;10.97;100.00;99099.66;4934905;29;20027;-71
2021/12/30 07:46:17;;;;;;;17.48;3.85;;;;;;;10.93;100.00;99104.03;4937393;29;20062;-71
2021/12/30 07:48:42;;;;;;;2.97;1.95;;;;;;;11.01;100.00;99112.53;4946002;28;20429;-71
2021/12/30 07:51:07;;;;;;;1.73;1.30;;;;;;;11.09;100.00;99104.66;4953989;28;20023;-72
2021/12/30 07:53:33;;;;;;;2.05;1.35;;;;;;;11.09;100.00;99114.19;4954082;28;20038;-72
2021/12/30 07:56:01;;;;;;;1.13;0.80;;;;;;;11.26;100.00;99117.38;4953657;28;20055;-69
2021/12/30 07:58:27;;;;;;;0.35;0.35;;;;;;;11.39;100.00;99118.91;4953913;28;20477;-70
2021/12/30 08:00:52;;;;;;;0.73;0.60;;;;;;;11.46;100.00;99114.44;4953830;28;20122;-69
2021/12/30 08:03:18;;;;;;;0.30;0.30;;;;;;;11.56;100.00;99127.28;4953942;28;20034;-69
2021/12/30 08:05:45;;;;;;;0.38;0.38;;;;;;;11.63;100.00;99119.38;4953776;28;20436;-69
2021/12/30 08:08:10;;;;;;;0.30;0.30;;;;;;;11.59;100.00;99122.03;4953678;28;20469;-69
2021/12/30 08:10:35;;;;;;;0.30;0.30;;;;;;;11.61;100.00;99119.41;4936035;28;20119;-72
2021/12/30 08:13:01;;;;;;;0.40;0.40;;;;;;;11.75;100.00;99126.97;4934847;29;20035;-70
2021/12/30 08:15:27;;;;;;;0.30;0.30;;;;;;;11.75;100.00;99134.78;4934380;29;20028;-71
2021/12/30 08:17:54;;;;;;;0.30;0.30;;;;;;;11.86;100.00;99130.28;4945769;29;20020;-72
2021/12/30 08:20:22;;;;;;;0.40;0.40;;;;;;;11.76;100.00;99129.53;4951156;28;20023;-72
2021/12/30 08:22:48;;;;;;;0.30;0.30;;;;;;;11.86;100.00;99135.47;4957744;28;20035;-70
2021/12/30 08:25:14;;;;;;;0.30;0.30;;;;;;;11.85;100.00;99133.75;4957525;28;20050;-71
2021/12/30 08:27:40;;;;;;;0.30;0.30;;;;;;;11.77;100.00;99131.25;4957374;28;20110;-70
2021/12/30 08:30:10;;;;;;;0.70;0.70;;;;;;;11.70;100.00;99136.56;4957644;28;20079;-71
2021/12/30 08:32:35;;;;;;;0.40;0.40;;;;;;;11.76;100.00;99131.28;4957575;28;20034;-70
2021/12/30 08:35:01;;;;;;;0.40;0.40;;;;;;;11.75;100.00;99126.97;4957764;28;20505;-70
2021/12/30 08:37:27;;;;;;;0.30;0.30;;;;;;;11.62;100.00;99130.66;4956869;28;20026;-69
2021/12/30 08:39:52;;;;;;;0.50;0.50;;;;;;;11.66;100.00;99129.72;4945128;28;20034;-72
2021/12/30 08:42:24;;;;;;;3.20;0.40;;;;;;;11.64;100.00;99139.25;4936771;29;20032;-71
2021/12/30 08:44:50;;;;;;;3.30;1.25;;;;;;;11.68;100.00;99135.75;4938120;29;20107;-69
2021/12/30 08:47:16;;;;;;;2.70;0.30;;;;;;;11.90;100.00;99144.91;4940362;29;20024;-70
2021/12/30 08:49:45;;;;;;;0.47;0.47;;;;;;;11.83;100.00;99140.69;4937819;29;20043;-70
2021/12/30 08:52:15;;;;;;;0.50;0.50;;;;;;;11.77;100.00;99140.78;4938207;29;20027;-72
2021/12/30 08:54:41;;;;;;;1.90;0.90;;;;;;;11.94;100.00;99149.19;4943440;29;20023;-70
2021/12/30 08:57:07;;;;;;;0.82;0.70;;;;;;;11.93;100.00;99152.63;4937563;29;20070;-70
2021/12/30 08:59:32;;;;;;;0.30;0.30;;;;;;;11.96;100.00;99154.34;4938017;29;20028;-71
2021/12/30 09:01:58;;;;;;;0.47;0.40;;;;;;;12.03;100.00;99151.59;4937779;29;20034;-70
2021/12/30 09:04:23;;;;;;;0.50;0.50;;;;;;;12.08;100.00;99147.16;4937611;29;20035;-70
2021/12/30 09:06:49;;;;;;;0.40;0.40;;;;;;;12.20;100.00;99142.66;4947738;29;20034;-71
2021/12/30 09:09:14;;;;;;;0.30;0.30;;;;;;;12.42;100.00;99143.94;4949700;28;20441;-70
2021/12/30 09:11:39;;;;;;;0.30;0.30;;;;;;;12.74;100.00;99148.50;4937603;29;20024;-75
2021/12/30 09:14:05;;;;;;;0.25;0.25;;;;;;;13.12;100.00;99152.88;4936557;29;20511;-71
2021/12/30 09:16:30;;;;;;;0.38;0.30;;;;;;;13.72;100.00;99145.44;4937307;29;20032;-71
2021/12/30 09:18:56;;;;;;;0.20;0.20;;;;;;;13.85;100.00;99152.91;4937444;29;20031;-71
2021/12/30 09:21:22;;;;;;;2.05;0.82;;;;;;;14.18;100.00;99159.91;4937396;29;20035;-70
2021/12/30 09:23:48;;;;;;;0.30;0.30;;;;;;;14.01;98.87;99158.56;4938578;29;20106;-71
2021/12/30 09:26:14;;;;;;;0.38;0.38;;;;;;;13.98;98.32;99152.59;4949248;28;20035;-70
2021/12/30 09:28:39;;;;;;;0.40;0.40;;;;;;;13.88;99.25;99152.84;4937286;29;20186;-71
2021/12/30 09:31:05;;;;;;;0.30;0.30;;;;;;;14.54;94.77;99145.03;4935659;29;20028;-71
2021/12/30 09:33:30;;;;;;;0.20;0.20;;;;;;;14.84;93.72;99138.06;4936530;29;20031;-73
2021/12/30 09:35:56;;;;;;;0.28;0.28;;;;;;;14.33;95.56;99141.25;4940214;29;20054;-73
2021/12/30 09:38:21;;;;;;;0.30;0.30;;;;;;;14.71;95.90;99147.16;4956076;29;20035;-71
2021/12/30 09:40:47;;;;;;;0.30;0.30;;;;;;;14.72;95.58;99151.47;4936861;28;20023;-71
2021/12/30 09:43:12;;;;;;;1.73;1.05;;;;;;;14.69;95.47;99155.00;4937162;29;20042;-71
2021/12/30 09:45:40;;;;;;;1.10;1.05;;;;;;;14.54;96.26;99152.84;4937025;29;20026;-71
2021/12/30 09:48:08;;;;;;;2.55;2.08;;;;;;;14.18;98.58;99159.91;4937032;29;20024;-71
2021/12/30 09:50:37;;;;;;;0.75;0.75;;;;;;;14.21;97.92;99157.19;4936924;29;20114;-71
2021/12/30 09:53:04;;;;;;;1.85;0.73;;;;;;;13.97;100.00;99163.91;4936844;29;20023;-76
2021/12/30 09:55:31;;;;;;;0.63;0.63;;;;;;;13.97;99.84;99164.75;4950416;29;20035;-72
2021/12/30 09:57:56;;;;;;;0.55;0.50;;;;;;;14.01;99.25;99169.00;4949069;29;20469;-71
2021/12/30 10:00:23;;;;;;;1.15;0.60;;;;;;;14.24;98.88;99163.19;4955771;28;20042;-71
2021/12/30 10:02:49;;;;;;;0.30;0.30;;;;;;;14.34;98.52;99162.03;4955945;28;20043;-71
2021/12/30 10:05:18;;;;;;;0.20;0.20;;;;;;;14.37;96.26;99161.97;4955719;28;20385;-75
2021/12/30 10:07:44;;;;;;;0.10;0.10;;;;;;;14.39;93.85;99164.53;4955387;28;20400;-70
2021/12/30 10:10:29;;;;;;;0.20;0.20;;;;;;;14.09;97.61;99167.06;4941482;28;20019;-70
2021/12/30 10:12:56;;;;;;;0.32;0.30;;;;;;;14.13;98.60;99173.91;4936737;29;20028;-74
2021/12/30 10:15:24;;;;;;;0.38;0.38;;;;;;;14.30;98.03;99164.78;4936201;29;20036;-73
2021/12/30 10:17:55;;;;;;;0.93;0.30;;;;;;;14.35;94.87;99170.72;4936315;29;20043;-70
2021/12/30 10:20:27;;;;;;;0.30;0.30;;;;;;;14.35;97.44;99163.75;4936222;29;20059;-73
2021/12/30 10:22:55;;;;;;;0.25;0.25;;;;;;;14.45;97.46;99172.16;4936337;29;20034;-73
2021/12/30 10:25:37;;;;;;;0.85;0.55;;;;;;;14.45;97.56;99166.09;4950055;29;20027;-72
2021/12/30 10:28:33;;;;;;;0.40;0.40;;;;;;;14.60;96.22;99173.53;4949391;29;20059;-72
2021/12/30 10:31:19;;;;;;;1.95;0.50;;;;;;;14.70;93.67;99180.22;4955238;28;20035;-73
2021/12/30 10:33:58;;;;;;;0.22;0.22;;;;;;;14.34;96.42;99176.84;4955416;28;20031;-68
2021/12/30 10:36:35;;;;;;;0.20;0.20;;;;;;;14.34;96.81;99185.50;4954856;28;20677;-68
2021/12/30 10:39:17;;;;;;;0.20;0.20;;;;;;;14.25;97.40;99187.50;4949848;28;20363;-68
2021/12/30 10:41:43;;;;;;;0.10;0.10;;;;;;;14.05;98.66;99183.66;4935951;29;20020;-69
2021/12/30 10:44:08;;;;;;;0.28;0.28;;;;;;;13.91;100.00;99183.16;4935600;29;20478;-69
2021/12/30 10:46:34;;;;;;;0.52;0.20;;;;;;;13.98;99.73;99183.88;4935529;29;20056;-70
2021/12/30 10:49:04;;;;;;;0.20;0.20;;;;;;;14.29;98.36;99189.13;4935814;29;20046;-68
2021/12/30 10:51:40;;;;;;;0.20;0.20;;;;;;;14.11;96.75;99199.13;4935750;29;20020;-68
2021/12/30 10:54:22;;;;;;;0.28;0.20;;;;;;;14.00;98.83;99193.34;4939824;29;20030;-68
2021/12/30 10:56:57;;;;;;;0.20;0.20;;;;;;;14.00;97.82;99198.56;4943327;29;20023;-68
2021/12/30 10:59:28;;;;;;;1.08;0.85;;;;;;;14.02;97.33;99206.31;4935777;29;20489;-70
2021/12/30 11:02:04;;;;;;;1.00;0.75;;;;;;;14.00;98.46;99198.56;4935564;29;20024;-70
2021/12/30 11:04:43;;;;;;;1.95;0.32;;;;;;;14.01;98.38;99197.66;4935755;29;20028;-72
2021/12/30 11:07:11;;;;;;;1.33;0.50;;;;;;;14.13;96.47;99186.94;4948114;29;20086;-72
2021/12/30 11:09:55;;;;;;;0.50;0.50;;;;;;;14.04;97.23;99188.91;4944537;28;20039;-73
2021/12/30 11:12:44;;;;;;;0.40;0.40;;;;;;;14.08;97.58;99180.97;4935432;29;20032;-73
2021/12/30 11:15:27;;;;;;;0.30;0.30;;;;;;;14.27;96.53;99175.28;4935570;29;20115;-73
2021/12/30 11:18:13;;;;;;;1.20;0.90;;;;;;;14.51;94.11;99173.81;4935161;29;20412;-73
2021/12/30 11:20:56;;;;;;;0.40;0.40;;;;;;;14.81;92.34;99177.31;4935213;29;20032;-73
2021/12/30 11:23:22;;;;;;;0.20;0.20;;;;;;;15.19;89.90;99172.72;4935265;29;20547;-73
2021/12/30 11:25:48;;;;;;;0.40;0.40;;;;;;;15.58;88.75;99174.09;4948752;29;20160;-73
2021/12/30 11:28:14;;;;;;;2.92;1.42;;;;;;;16.04;85.51;99164.75;4949800;29;20031;-73
2021/12/30 11:30:39;;;;;;;0.47;0.47;;;;;;;16.01;84.60;99180.56;4954718;28;20055;-73
2021/12/30 11:33:04;;;;;;;0.20;0.20;;;;;;;15.70;86.50;99174.63;4954252;28;20031;-72
2021/12/30 11:35:30;;;;;;;0.13;0.13;;;;;;;15.69;86.50;99179.00;4954151;28;20102;-72
2021/12/30 11:37:56;;;;;;;0.20;0.20;;;;;;;15.46;88.03;99177.06;4953951;28;20389;-72
2021/12/30 11:40:25;;;;;;;0.47;0.30;;;;;;;15.36;88.77;99178.25;4938186;28;20485;-73
2021/12/30 11:43:12;;;;;;;0.63;0.52;;;;;;;15.08;89.14;99166.03;4935009;29;20044;-73
2021/12/30 11:45:40;;;;;;;0.22;0.22;;;;;;;15.04;89.75;99169.66;4934623;29;20059;-71
2021/12/30 11:48:22;;;;;;;0.20;0.20;;;;;;;15.24;90.30;99170.81;4935155;29;20409;-73
2021/12/30 11:50:48;;;;;;;0.20;0.20;;;;;;;15.20;89.15;99179.63;4934907;29;20019;-73
2021/12/30 11:53:27;;;;;;;0.20;0.20;;;;;;;15.22;88.71;99180.44;4934997;29;20050;-73
2021/12/30 11:56:22;;;;;;;0.25;0.25;;;;;;;15.22;87.89;99177.81;4947537;29;20024;-73
2021/12/30 11:58:55;;;;;;;4.75;2.72;;;;;;;15.19;90.61;99167.50;4935039;29;20028;-73
2021/12/30 12:01:21;;;;;;;0.30;0.30;;;;;;;15.60;88.24;99172.25;4934676;29;20039;-73
2021/12/30 12:03:52;;;;;;;0.30;0.30;;;;;;;15.90;87.03;99164.34;4934810;28;20040;-73
2021/12/30 12:06:40;;;;;;;3.80;2.03;;;;;;;16.19;84.63;99169.44;4940621;29;20035;-73
2021/12/30 12:09:11;;;;;;;0.30;0.30;;;;;;;16.47;82.21;99163.25;4942644;29;20027;-73
2021/12/30 12:11:48;;;;;;;0.10;0.10;;;;;;;16.68;80.85;99154.66;4934682;29;20470;-73
2021/12/30 12:14:22;;;;;;;0.30;0.30;;;;;;;16.60;82.14;99147.97;4934864;29;20037;-73
2021/12/30 12:16:51;;;;;;;0.30;0.30;;;;;;;16.34;82.22;99151.50;4934167;29;20598;-73
2021/12/30 12:19:19;;;;;;;0.28;0.28;;;;;;;16.23;83.83;99151.03;4934962;29;20063;-72
2021/12/30 12:21:51;;;;;;;0.22;0.22;;;;;;;15.93;85.69;99151.19;4934431;29;20032;-72
2021/12/30 12:24:38;;;;;;;0.30;0.30;;;;;;;15.77;86.40;99150.00;4939947;29;20039;-72
2021/12/30 12:27:29;;;;;;;0.30;0.30;;;;;;;15.66;87.49;99146.00;4939797;29;20019;-72
2021/12/30 12:29:57;;;;;;;5.30;1.73;;;;;;;15.43;86.38;99156.28;4953903;28;20023;-72
2021/12/30 12:32:32;;;;;;;1.05;0.98;;;;;;;15.22;89.12;99154.31;4953736;28;20057;-72
2021/12/30 12:35:00;;;;;;;0.20;0.20;;;;;;;15.27;89.30;99157.66;4953624;28;20027;-72
2021/12/30 12:37:32;;;;;;;0.20;0.20;;;;;;;15.37;87.89;99151.25;4953169;28;20035;-72
2021/12/30 12:40:01;;;;;;;0.20;0.20;;;;;;;15.46;89.22;99150.94;4940759;28;20038;-72
2021/12/30 12:42:55;;;;;;;2.33;1.33;;;;;;;15.45;87.62;99149.25;4934594;29;20028;-70
2021/12/30 12:45:29;;;;;;;0.20;0.20;;;;;;;15.41;87.75;99143.25;4934395;29;20024;-69
2021/12/30 12:48:20;;;;;;;0.10;0.10;;;;;;;15.33;89.87;99139.22;4934226;29;20038;-71
2021/12/30 12:50:47;;;;;;;0.30;0.30;;;;;;;15.08;88.14;99139.94;4934410;29;20031;-72
2021/12/30 12:53:38;;;;;;;0.20;0.20;;;;;;;15.03;89.37;99131.41;4934361;29;20063;-71
2021/12/30 12:56:07;;;;;;;0.20;0.20;;;;;;;15.12;90.30;99136.34;4941971;29;20030;-69
2021/12/30 12:58:40;;;;;;;0.30;0.30;;;;;;;14.91;91.08;99137.00;4951430;29;20019;-76
2021/12/30 13:01:11;;;;;;;0.25;0.25;;;;;;;14.73;92.30;99137.53;4953294;28;20485;-73
2021/12/30 13:03:37;;;;;;;0.20;0.20;;;;;;;14.84;92.07;99140.66;4953521;28;20475;-69
2021/12/30 13:06:07;;;;;;;2.10;1.15;;;;;;;14.71;92.80;99145.41;4953773;28;20159;-72
2021/12/30 13:08:36;;;;;;;0.30;0.30;;;;;;;14.61;95.14;99139.59;4955220;28;20027;-72
2021/12/30 13:11:04;;;;;;;0.20;0.20;;;;;;;14.58;93.54;99139.69;4937625;29;20119;-72
2021/12/30 13:13:36;;;;;;;0.20;0.20;;;;;;;14.73;93.47;99142.75;4937759;29;20032;-70
2021/12/30 13:16:05;;;;;;;0.30;0.30;;;;;;;14.74;92.82;99139.22;4937142;29;20042;-70
2021/12/30 13:18:32;;;;;;;0.45;0.45;;;;;;;15.02;91.60;99139.28;4937392;29;20106;-70
2021/12/30 13:21:12;;;;;;;0.28;0.28;;;;;;;14.95;91.52;99140.38;4937327;29;20385;-70
2021/12/30 13:23:37;;;;;;;0.20;0.20;;;;;;;15.05;90.05;99155.72;4937327;29;20417;-69
2021/12/30 13:26:06;;;;;;;0.20;0.20;;;;;;;15.07;89.43;99153.91;4950707;28;20027;-71
2021/12/30 13:28:32;;;;;;;4.78;1.08;;;;;;;15.03;90.29;99152.28;4954130;29;20147;-72
2021/12/30 13:31:13;;;;;;;0.20;0.20;;;;;;;14.63;92.06;99156.06;4956332;28;20024;-72
2021/12/30 13:33:51;;;;;;;8.77;4.68;;;;;;;14.74;89.93;99155.75;4956240;28;20055;-70
2021/12/30 13:36:17;;;;;;;0.35;0.35;;;;;;;14.73;90.13;99158.41;4955943;28;20027;-68
2021/12/30 13:38:42;;;;;;;0.20;0.20;;;;;;;14.70;89.68;99158.47;4953275;28;20034;-68
2021/12/30 13:41:13;;;;;;;0.20;0.20;;;;;;;14.61;90.33;99155.25;4937149;29;20548;-68
2021/12/30 13:43:38;;;;;;;0.20;0.20;;;;;;;14.60;89.80;99152.66;4937114;29;20031;-73
2021/12/30 13:46:05;;;;;;;0.28;0.28;;;;;;;14.63;90.26;99148.22;4936669;29;20495;-73
2021/12/30 13:48:38;;;;;;;0.20;0.20;;;;;;;14.63;89.59;99150.84;4936924;29;20055;-76
2021/12/30 13:51:12;;;;;;;0.30;0.30;;;;;;;14.68;89.25;99160.28;4936759;29;20086;-75
2021/12/30 13:53:41;;;;;;;0.17;0.17;;;;;;;14.69;89.88;99156.78;4937011;29;20051;-68
2021/12/30 13:56:12;;;;;;;0.52;0.52;;;;;;;14.80;89.74;99162.56;4949665;28;20056;-78
2021/12/30 13:58:40;;;;;;;0.68;0.68;;;;;;;14.69;89.62;99167.22;4954659;29;20492;-74
2021/12/30 14:01:10;;;;;;;0.30;0.30;;;;;;;14.46;92.01;99171.31;4955532;28;20031;-73
2021/12/30 14:03:39;;;;;;;0.30;0.30;;;;;;;14.36;91.91;99180.28;4955961;28;20050;-70
2021/12/30 14:06:11;;;;;;;0.20;0.20;;;;;;;14.44;91.59;99180.91;4955300;28;20038;-68
2021/12/30 14:08:47;;;;;;;0.30;0.30;;;;;;;14.36;92.26;99175.91;4953589;28;20038;-69
2021/12/30 14:11:12;;;;;;;0.20;0.20;;;;;;;14.57;92.27;99184.91;4936439;29;20058;-76
2021/12/30 14:13:44;;;;;;;0.20;0.20;;;;;;;14.47;91.15;99178.22;4936433;29;20417;-75
2021/12/30 14:16:19;;;;;;;0.70;0.30;;;;;;;14.45;91.59;99182.59;4935928;29;20469;-70
2021/12/30 14:18:45;;;;;;;0.30;0.30;;;;;;;14.54;91.45;99179.78;4935713;29;20032;-77
2021/12/30 14:21:11;;;;;;;0.20;0.20;;;;;;;14.53;91.86;99178.06;4936157;29;20070;-70
2021/12/30 14:23:41;;;;;;;1.17;1.08;;;;;;;14.44;91.61;99190.47;4936419;29;20023;-69
2021/12/30 14:26:19;;;;;;;0.30;0.30;;;;;;;14.26;91.94;99200.47;4943590;29;20035;-70
2021/12/30 14:28:52;;;;;;;0.28;0.28;;;;;;;14.24;93.50;99196.22;4955004;29;20082;-75
2021/12/30 14:31:29;;;;;;;0.20;0.20;;;;;;;14.14;93.39;99204.28;4955198;28;20057;-75
2021/12/30 14:34:02;;;;;;;0.43;0.40;;;;;;;14.26;93.05;99204.84;4955230;28;20023;-75
2021/12/30 14:36:27;;;;;;;0.30;0.30;;;;;;;14.22;92.50;99208.44;4953397;28;20019;-71
2021/12/30 14:38:53;;;;;;;0.52;0.30;;;;;;;14.24;91.94;99210.09;4950849;28;20046;-71
2021/12/30 14:41:21;;;;;;;0.30;0.30;;;;;;;14.15;92.30;99215.53;4935732;29;20024;-73
2021/12/30 14:44:11;;;;;;;4.72;2.17;;;;;;;14.13;92.62;99209.53;4935886;29;20027;-75
2021/12/30 14:46:38;;;;;;;;;;;;;;;14.05;94.96;99209.72;4935991;29;20034;-75
2021/12/30 14:49:25;;;;;;;0.30;0.30;;;;;;;13.89;96.77;99216.22;4935741;29;19958;-76
2021/12/30 14:52:14;;;;;;;0.20;0.20;;;;;;;14.06;94.05;99211.41;4935736;29;20032;-75
2021/12/30 14:54:39;;;;;;;0.38;0.38;;;;;;;13.86;95.57;99217.13;4944027;29;20122;-69
2021/12/30 14:57:05;;;;;;;0.20;0.20;;;;;;;13.81;97.16;99207.72;4946530;28;20114;-72
2021/12/30 14:59:30;;;;;;;0.30;0.30;;;;;;;13.81;96.30;99225.94;4954699;28;20396;-71
2021/12/30 15:01:55;;;;;;;0.30;0.30;;;;;;;13.66;97.28;99223.72;4954628;28;20110;-73
2021/12/30 15:04:21;;;;;;;0.22;0.22;;;;;;;13.58;99.30;99232.53;4954778;28;20027;-70
2021/12/30 15:06:47;;;;;;;0.30;0.30;;;;;;;13.46;100.00;99232.81;4954443;28;20429;-73
2021/12/30 15:09:13;;;;;;;0.30;0.30;;;;;;;13.50;100.00;99239.69;4948013;28;20433;-70
2021/12/30 15:11:38;;;;;;;0.30;0.30;;;;;;;13.53;100.00;99233.53;4935527;29;20019;-73
2021/12/30 15:14:03;;;;;;;0.30;0.20;;;;;;;13.31;100.00;99239.22;4935267;29;20103;-72
2021/12/30 15:16:29;;;;;;;0.40;0.40;;;;;;;13.19;100.00;99241.19;4935121;29;20063;-73
2021/12/30 15:18:54;;;;;;;0.20;0.20;;;;;;;13.08;100.00;99244.88;4934033;29;20095;-73
2021/12/30 15:21:20;;;;;;;0.88;0.35;;;;;;;13.10;100.00;99243.13;4935279;29;20027;-73
2021/12/30 15:23:46;;;;;;;0.50;0.50;;;;;;;13.07;100.00;99243.19;4935208;29;20396;-73
2021/12/30 15:26:12;;;;;;;0.22;0.22;;;;;;;13.07;100.00;99245.78;4947750;29;20031;-73
2021/12/30 15:28:38;;;;;;;0.30;0.30;;;;;;;13.11;100.00;99244.81;4936433;28;20055;-73
2021/12/30 15:31:03;;;;;;;0.30;0.30;;;;;;;13.06;100.00;99249.28;4935126;29;20098;-78
2021/12/30 15:33:29;;;;;;;0.20;0.20;;;;;;;13.30;100.00;99254.88;4935060;29;20083;-72
2021/12/30 15:35:54;;;;;;;0.50;0.50;;;;;;;13.13;100.00;99250.84;4937845;29;20031;-71
2021/12/30 15:38:20;;;;;;;0.38;0.30;;;;;;;13.00;100.00;99253.72;4954165;28;20031;-73
2021/12/30 15:40:47;;;;;;;0.30;0.30;;;;;;;13.18;100.00;99257.69;4935305;29;20035;-73
2021/12/30 15:43:13;;;;;;;0.30;0.30;;;;;;;13.10;100.00;99256.13;4934710;29;20031;-73
2021/12/30 15:45:38;;;;;;;0.32;0.32;;;;;;;13.07;100.00;99256.19;4934685;29;20095;-73
2021/12/30 15:48:04;;;;;;;0.30;0.30;;;;;;;12.95;100.00;99261.63;4934723;29;20028;-73
2021/12/30 15:50:30;;;;;;;0.30;0.30;;;;;;;12.98;100.00;99271.97;4934693;29;20107;-73